Phoenix, Arizona
Traffic Map
Current Weather Conditions
Phoenix, Arizona
Overcast
Overcast
64°
Feels Like: 64°
Wind Chill: 64° Ceiling: 19000
Heat Index: 64° Visibility: 10mi
Dew Point: 33° Wind: 7mph
Humidity: 31% Direction: 90° (E)
Pressure: 30.02in Gusts: 0mph
Raw Report DataKPHX 110251Z 09006KT 10SM OVC190 18/01 A3002 RMK AO2 SLP157 T01780006 53004
Traffic Incident Summary
Active as of:
Severity:
Category:
InformationThere was an issue retrieving the traffic information for this location. Please try a different location or try again shortly.
Advertisements